createdAt,value
2022-10-13T00:00:04.669Z,21
2022-10-13T00:00:56.505Z,20
2022-10-13T00:01:48.207Z,21
2022-10-13T00:02:39.960Z,20
2022-10-13T00:03:31.663Z,20
2022-10-13T00:04:23.412Z,20
2022-10-13T00:05:15.120Z,21
2022-10-13T00:06:06.871Z,21
2022-10-13T00:06:58.572Z,21
2022-10-13T00:07:50.343Z,23
2022-10-13T00:08:42.026Z,21
2022-10-13T00:09:33.778Z,21
2022-10-13T00:10:25.483Z,21
2022-10-13T00:11:17.243Z,21
2022-10-13T00:12:08.951Z,20
2022-10-13T00:13:00.562Z,21
2022-10-13T00:13:52.393Z,21
2022-10-13T00:14:44.124Z,22
2022-10-13T00:15:35.833Z,21
2022-10-13T00:16:27.563Z,21
2022-10-13T00:17:19.272Z,21
2022-10-13T00:18:11.035Z,21
2022-10-13T00:19:02.738Z,21
2022-10-13T00:19:54.363Z,21
2022-10-13T00:20:46.174Z,22
2022-10-13T00:21:37.905Z,22
2022-10-13T00:22:29.612Z,20
2022-10-13T00:23:21.344Z,21
2022-10-13T00:24:13.055Z,21
2022-10-13T00:25:04.711Z,21
2022-10-13T00:25:56.514Z,22
2022-10-13T00:26:48.244Z,22
2022-10-13T00:27:39.949Z,21
2022-10-13T00:28:31.721Z,22
2022-10-13T00:29:23.378Z,21
2022-10-13T00:30:15.039Z,22
2022-10-13T00:31:06.824Z,22
2022-10-13T00:31:58.560Z,22
2022-10-13T00:32:50.258Z,22
2022-10-13T00:33:41.997Z,23
2022-10-13T00:34:33.716Z,21
2022-10-13T00:35:25.454Z,21
2022-10-13T00:36:17.155Z,21
2022-10-13T00:37:08.883Z,23
2022-10-13T00:38:00.498Z,22
2022-10-13T00:38:52.318Z,22
2022-10-13T00:39:44.041Z,22
2022-10-13T00:40:35.780Z,22
2022-10-13T00:41:27.489Z,22
2022-10-13T00:42:19.565Z,22
2022-10-13T00:43:10.911Z,23
2022-10-13T00:44:02.654Z,22
2022-10-13T00:44:54.302Z,23
2022-10-13T00:45:46.083Z,22
2022-10-13T00:46:37.777Z,21
2022-10-13T00:47:29.544Z,23
2022-10-13T00:48:21.213Z,22
2022-10-13T00:49:12.950Z,22
2022-10-13T00:50:04.597Z,22
2022-10-13T00:50:56.399Z,22
2022-10-13T00:51:48.102Z,22
2022-10-13T00:52:39.833Z,22
2022-10-13T00:53:31.534Z,23
2022-10-13T00:54:23.263Z,21
2022-10-13T00:55:14.903Z,22
2022-10-13T00:56:06.708Z,22
2022-10-13T00:56:58.422Z,22
2022-10-13T00:57:50.186Z,22
2022-10-13T00:58:41.862Z,22
2022-10-13T00:59:33.617Z,23
2022-10-13T01:00:25.306Z,22
2022-10-13T01:01:17.121Z,23
2022-10-13T01:02:08.757Z,22
2022-10-13T01:03:00.429Z,22
2022-10-13T01:03:52.180Z,23
2022-10-13T01:04:43.927Z,23
2022-10-13T01:05:35.647Z,22
2022-10-13T01:06:27.371Z,22
2022-10-13T01:07:19.073Z,23
2022-10-13T01:08:10.807Z,22
2022-10-13T01:09:02.532Z,23
2022-10-13T01:09:54.262Z,23
2022-10-13T01:10:45.943Z,23
2022-10-13T01:11:37.672Z,22
2022-10-13T01:12:29.377Z,22
2022-10-13T01:13:21.120Z,23
2022-10-13T01:14:12.833Z,22
2022-10-13T01:15:04.474Z,22
2022-10-13T01:15:56.264Z,23
2022-10-13T01:16:48.018Z,23
2022-10-13T01:17:39.702Z,23
2022-10-13T01:18:31.447Z,25
2022-10-13T01:19:23.134Z,23
2022-10-13T01:20:14.811Z,22
2022-10-13T01:21:06.558Z,23
2022-10-13T01:21:58.299Z,22
2022-10-13T01:22:49.997Z,23
2022-10-13T01:23:41.745Z,23
2022-10-13T01:24:33.437Z,23
2022-10-13T01:25:25.174Z,23
2022-10-13T01:26:16.862Z,24
2022-10-13T01:27:08.632Z,23
2022-10-13T01:28:00.322Z,22
2022-10-13T01:28:52.028Z,23
2022-10-13T01:29:43.735Z,23
2022-10-13T01:30:35.486Z,23
2022-10-13T01:31:27.180Z,22
2022-10-13T01:32:19.228Z,22
2022-10-13T01:33:10.604Z,23
2022-10-13T01:34:02.327Z,22
2022-10-13T01:34:54.060Z,23
2022-10-13T01:35:45.777Z,23
2022-10-13T01:36:37.468Z,24
2022-10-13T01:37:29.213Z,23
2022-10-13T01:38:20.920Z,23
2022-10-13T01:39:12.650Z,23
2022-10-13T01:40:04.338Z,22
2022-10-13T01:40:56.085Z,22
2022-10-13T01:41:47.787Z,23
2022-10-13T01:42:39.525Z,23
2022-10-13T01:43:31.217Z,23
2022-10-13T01:44:22.961Z,22
2022-10-13T01:45:14.700Z,22
2022-10-13T01:46:06.389Z,22
2022-10-13T01:46:58.118Z,22
2022-10-13T01:47:49.825Z,23
2022-10-13T01:48:41.721Z,22
2022-10-13T01:49:33.262Z,23
2022-10-13T01:50:24.884Z,22
2022-10-13T01:51:16.698Z,22
2022-10-13T01:52:08.403Z,23
2022-10-13T01:53:00.141Z,23
2022-10-13T01:53:51.837Z,23
2022-10-13T01:54:43.579Z,23
2022-10-13T01:55:35.219Z,24
2022-10-13T01:56:27.008Z,23
2022-10-13T01:57:18.707Z,24
2022-10-13T01:58:10.459Z,24
2022-10-13T01:59:02.135Z,23
2022-10-13T01:59:53.871Z,23
2022-10-13T02:00:45.620Z,23
2022-10-13T02:01:37.315Z,22
2022-10-13T02:02:29.023Z,23
2022-10-13T02:03:20.739Z,23
2022-10-13T02:04:12.451Z,23
2022-10-13T02:05:04.170Z,23
2022-10-13T02:05:55.873Z,23
2022-10-13T02:06:47.602Z,23
2022-10-13T02:07:39.326Z,22
2022-10-13T02:08:31.055Z,22
2022-10-13T02:09:22.765Z,23
2022-10-13T02:10:14.454Z,23
2022-10-13T02:11:06.177Z,22
2022-10-13T02:11:57.911Z,22
2022-10-13T02:12:49.607Z,23
2022-10-13T02:13:41.339Z,23
2022-10-13T02:14:33.025Z,23
2022-10-13T02:15:24.672Z,23
2022-10-13T02:16:16.464Z,23
2022-10-13T02:17:08.199Z,23
2022-10-13T02:17:59.910Z,22
2022-10-13T02:18:51.623Z,23
2022-10-13T02:19:43.338Z,23
2022-10-13T02:20:35.018Z,22
2022-10-13T02:21:26.762Z,22
2022-10-13T02:22:18.777Z,22
2022-10-13T02:23:10.204Z,24
2022-10-13T02:24:01.926Z,24
2022-10-13T02:24:53.638Z,23
2022-10-13T02:25:45.264Z,23
2022-10-13T02:26:37.056Z,23
2022-10-13T02:27:28.785Z,25
2022-10-13T02:28:20.538Z,24
2022-10-13T02:29:12.217Z,23
2022-10-13T02:30:03.922Z,24
2022-10-13T02:30:55.640Z,23
2022-10-13T02:31:47.348Z,23
2022-10-13T02:32:39.084Z,23
2022-10-13T02:33:30.775Z,23
2022-10-13T02:34:22.525Z,23
2022-10-13T02:35:14.207Z,22
2022-10-13T02:36:05.941Z,22
2022-10-13T02:36:57.647Z,22
2022-10-13T02:37:49.369Z,23
2022-10-13T02:38:41.077Z,22
2022-10-13T02:39:32.801Z,22
2022-10-13T02:40:24.476Z,22
2022-10-13T02:41:16.243Z,23
2022-10-13T02:42:07.958Z,22
2022-10-13T02:42:59.681Z,22
2022-10-13T02:43:51.387Z,23
2022-10-13T02:44:43.101Z,22
2022-10-13T02:45:34.731Z,22
2022-10-13T02:46:26.541Z,23
2022-10-13T02:47:18.248Z,22
2022-10-13T02:48:09.980Z,23
2022-10-13T02:49:01.691Z,24
2022-10-13T02:49:53.414Z,23
2022-10-13T02:50:45.129Z,23
2022-10-13T02:51:40.059Z,22
2022-10-13T02:52:28.557Z,22
2022-10-13T02:53:20.311Z,22
2022-10-13T02:54:11.990Z,22
2022-10-13T02:55:03.735Z,23
2022-10-13T02:55:55.425Z,23
2022-10-13T02:56:47.163Z,22
2022-10-13T02:57:38.864Z,24
2022-10-13T02:58:30.600Z,22
2022-10-13T02:59:22.310Z,22
2022-10-13T03:00:14.034Z,24
2022-10-13T03:01:05.778Z,22
2022-10-13T03:01:57.464Z,22
2022-10-13T03:02:49.181Z,22
2022-10-13T03:03:40.911Z,22
2022-10-13T03:04:32.623Z,22
2022-10-13T03:05:24.356Z,21
2022-10-13T03:06:16.054Z,22
2022-10-13T03:07:07.803Z,23
2022-10-13T03:07:59.481Z,21
2022-10-13T03:08:51.242Z,22
2022-10-13T03:09:42.919Z,22
2022-10-13T03:10:34.572Z,21
2022-10-13T03:11:26.367Z,22
2022-10-13T03:12:18.604Z,23
2022-10-13T03:13:09.813Z,22
2022-10-13T03:14:01.537Z,22
2022-10-13T03:14:53.251Z,22
2022-10-13T03:15:44.899Z,22
2022-10-13T03:16:36.684Z,22
2022-10-13T03:17:28.404Z,23
2022-10-13T03:18:20.127Z,22
2022-10-13T03:19:11.853Z,23
2022-10-13T03:20:03.506Z,22
2022-10-13T03:20:55.242Z,23
2022-10-13T03:21:46.994Z,22
2022-10-13T03:22:38.735Z,23
2022-10-13T03:23:30.448Z,22
2022-10-13T03:24:22.170Z,22
2022-10-13T03:25:13.888Z,22
2022-10-13T03:26:05.624Z,22
2022-10-13T03:26:57.337Z,21
2022-10-13T03:27:49.066Z,21
2022-10-13T03:28:40.830Z,22
2022-10-13T03:29:32.496Z,22
2022-10-13T03:30:24.220Z,22
2022-10-13T03:31:15.957Z,22
2022-10-13T03:32:07.648Z,21
2022-10-13T03:32:59.379Z,23
2022-10-13T03:33:51.085Z,22
2022-10-13T03:34:42.835Z,22
2022-10-13T03:35:34.522Z,21
2022-10-13T03:36:26.283Z,23
2022-10-13T03:37:17.965Z,23
2022-10-13T03:38:09.721Z,22
2022-10-13T03:39:01.352Z,23
2022-10-13T03:39:53.156Z,22
2022-10-13T03:40:44.853Z,22
2022-10-13T03:41:36.586Z,22
2022-10-13T03:42:28.298Z,23
2022-10-13T03:43:20.022Z,23
2022-10-13T03:44:11.743Z,22
2022-10-13T03:45:03.466Z,23
2022-10-13T03:45:55.128Z,22
2022-10-13T03:46:46.900Z,22
2022-10-13T03:47:38.625Z,22
2022-10-13T03:48:30.352Z,22
2022-10-13T03:49:22.059Z,22
2022-10-13T03:50:13.784Z,23
2022-10-13T03:51:05.485Z,22
2022-10-13T03:51:57.221Z,22
2022-10-13T03:52:48.922Z,22
2022-10-13T03:53:40.666Z,23
2022-10-13T03:54:32.381Z,22
2022-10-13T03:55:24.102Z,22
2022-10-13T03:56:15.813Z,21
2022-10-13T03:57:07.552Z,22
2022-10-13T03:57:59.247Z,22
2022-10-13T03:58:50.980Z,22
2022-10-13T03:59:42.690Z,22
2022-10-13T04:00:34.415Z,23
2022-10-13T04:01:26.144Z,23
2022-10-13T04:02:18.180Z,22
2022-10-13T04:03:09.582Z,22
2022-10-13T04:04:01.207Z,22
2022-10-13T04:04:53.004Z,22
2022-10-13T04:05:44.647Z,23
2022-10-13T04:06:36.441Z,22
2022-10-13T04:07:28.181Z,22
2022-10-13T04:08:19.889Z,22
2022-10-13T04:09:11.620Z,22
2022-10-13T04:10:03.236Z,22
2022-10-13T04:10:54.963Z,22
2022-10-13T04:11:46.785Z,22
2022-10-13T04:12:38.505Z,22
2022-10-13T04:13:30.198Z,22
2022-10-13T04:14:21.944Z,22
2022-10-13T04:15:13.646Z,22
2022-10-13T04:16:05.300Z,22
2022-10-13T04:16:57.111Z,22
2022-10-13T04:17:48.832Z,22
2022-10-13T04:18:44.518Z,23
2022-10-13T04:19:32.263Z,23
2022-10-13T04:20:23.968Z,22
2022-10-13T04:21:15.704Z,22
2022-10-13T04:22:07.410Z,22
2022-10-13T04:22:59.141Z,22
2022-10-13T04:23:50.844Z,23
2022-10-13T04:24:42.581Z,22
2022-10-13T04:25:34.307Z,22
2022-10-13T04:26:26.013Z,23
2022-10-13T04:27:17.740Z,21
2022-10-13T04:28:09.449Z,23
2022-10-13T04:29:01.098Z,23
2022-10-13T04:29:52.884Z,22
2022-10-13T04:30:49.131Z,23
2022-10-13T04:31:36.339Z,22
2022-10-13T04:32:28.037Z,23
2022-10-13T04:33:19.777Z,23
2022-10-13T04:34:11.463Z,23
2022-10-13T04:35:03.153Z,22
2022-10-13T04:35:54.885Z,23
2022-10-13T04:36:46.646Z,22
2022-10-13T04:37:42.787Z,22
2022-10-13T04:38:30.064Z,22
2022-10-13T04:39:21.775Z,22
2022-10-13T04:40:13.497Z,21
2022-10-13T04:41:05.112Z,21
2022-10-13T04:41:56.927Z,21
2022-10-13T04:42:48.633Z,22
2022-10-13T04:43:40.361Z,22
2022-10-13T04:44:32.071Z,23
2022-10-13T04:45:23.834Z,23
2022-10-13T04:46:15.427Z,22
2022-10-13T04:47:07.231Z,23
2022-10-13T04:47:58.930Z,22
2022-10-13T04:48:50.668Z,22
2022-10-13T04:49:42.364Z,23
2022-10-13T04:50:34.109Z,23
2022-10-13T04:51:25.809Z,22
2022-10-13T04:52:17.727Z,23
2022-10-13T04:53:09.254Z,23
2022-10-13T04:54:00.918Z,22
2022-10-13T04:54:52.683Z,23
2022-10-13T04:55:44.406Z,22
2022-10-13T04:56:36.121Z,22
2022-10-13T04:57:27.841Z,23
2022-10-13T04:58:19.550Z,22
2022-10-13T04:59:11.273Z,23
2022-10-13T05:00:02.996Z,22
2022-10-13T05:00:54.806Z,22
2022-10-13T05:01:46.423Z,22
2022-10-13T05:02:38.144Z,22
2022-10-13T05:03:29.848Z,23
2022-10-13T05:04:21.574Z,23
2022-10-13T05:05:13.283Z,22
2022-10-13T05:06:04.934Z,23
2022-10-13T05:07:16.022Z,23
2022-10-13T05:07:48.465Z,22
2022-10-13T05:08:40.163Z,22
2022-10-13T05:09:31.880Z,23
2022-10-13T05:10:23.575Z,22
2022-10-13T05:11:15.272Z,22
2022-10-13T05:12:07.026Z,21
2022-10-13T05:12:58.742Z,22
2022-10-13T05:13:50.435Z,22
2022-10-13T05:14:42.169Z,22
2022-10-13T05:15:33.876Z,22
2022-10-13T05:16:25.600Z,22
2022-10-13T05:17:17.308Z,22
2022-10-13T05:18:09.028Z,21
2022-10-13T05:19:00.738Z,23
2022-10-13T05:19:52.466Z,23
2022-10-13T05:20:44.161Z,23
2022-10-13T05:21:35.894Z,22
2022-10-13T05:22:27.597Z,23
2022-10-13T05:23:19.337Z,22
2022-10-13T05:24:11.024Z,22
2022-10-13T05:25:02.673Z,21
2022-10-13T05:25:54.454Z,21
2022-10-13T05:26:46.187Z,23
2022-10-13T05:27:37.908Z,23
2022-10-13T05:28:29.679Z,22
2022-10-13T05:29:21.329Z,22
2022-10-13T05:30:13.045Z,22
2022-10-13T05:31:04.761Z,23
2022-10-13T05:31:56.486Z,22
2022-10-13T05:32:53.631Z,21
2022-10-13T05:33:39.907Z,21
2022-10-13T05:34:31.623Z,21
2022-10-13T05:35:23.347Z,20
2022-10-13T05:36:14.952Z,20
2022-10-13T05:37:06.785Z,20
2022-10-13T05:37:58.477Z,20
2022-10-13T05:38:50.242Z,20
2022-10-13T05:39:41.936Z,19
2022-10-13T05:40:33.682Z,20
2022-10-13T05:41:25.321Z,20
2022-10-13T05:42:17.423Z,19
2022-10-13T05:43:08.837Z,19
2022-10-13T05:44:00.591Z,19
2022-10-13T05:44:52.296Z,19
2022-10-13T05:45:44.047Z,19
2022-10-13T05:46:35.757Z,17
2022-10-13T05:47:27.495Z,18
2022-10-13T05:48:19.218Z,17
2022-10-13T05:49:10.964Z,18
2022-10-13T05:50:02.637Z,17
2022-10-13T05:50:54.428Z,18
2022-10-13T05:51:46.170Z,17
2022-10-13T05:52:37.898Z,17
2022-10-13T05:53:29.621Z,17
2022-10-13T05:54:21.390Z,17
2022-10-13T05:55:13.099Z,17
2022-10-13T05:56:04.816Z,16
2022-10-13T05:56:56.585Z,16
2022-10-13T05:57:48.323Z,17
2022-10-13T05:58:40.053Z,16
2022-10-13T05:59:31.828Z,17
2022-10-13T06:00:23.549Z,17
2022-10-13T06:01:15.247Z,16
2022-10-13T06:02:07.095Z,17
2022-10-13T06:02:58.822Z,16
2022-10-13T06:03:50.549Z,18
2022-10-13T06:04:42.302Z,18
2022-10-13T06:05:34.030Z,16
2022-10-13T06:06:30.489Z,15
2022-10-13T06:07:17.541Z,17
2022-10-13T06:08:09.280Z,15
2022-10-13T06:09:00.953Z,17
2022-10-13T06:09:52.774Z,15
2022-10-13T06:10:44.515Z,16
2022-10-13T06:11:36.278Z,15
2022-10-13T06:12:28.001Z,15
2022-10-13T06:13:19.758Z,17
2022-10-13T06:14:11.519Z,17
2022-10-13T06:15:03.190Z,15
2022-10-13T06:15:54.898Z,18
2022-10-13T06:16:46.774Z,17
2022-10-13T06:17:38.491Z,17
2022-10-13T06:18:30.255Z,15
2022-10-13T06:19:21.976Z,15
2022-10-13T06:20:13.734Z,16
2022-10-13T06:21:05.396Z,15
2022-10-13T06:22:02.574Z,17
2022-10-13T06:22:48.972Z,17
2022-10-13T06:23:40.731Z,16
2022-10-13T06:24:32.485Z,15
2022-10-13T06:25:24.229Z,16
2022-10-13T06:26:15.957Z,17
2022-10-13T06:27:07.727Z,16
2022-10-13T06:27:59.459Z,15
2022-10-13T06:28:54.465Z,17
2022-10-13T06:29:42.961Z,15
2022-10-13T06:30:34.729Z,15
2022-10-13T06:31:26.462Z,14
2022-10-13T06:32:18.730Z,15
2022-10-13T06:33:09.968Z,14
2022-10-13T06:34:01.739Z,15
2022-10-13T06:34:53.470Z,16
2022-10-13T06:35:45.148Z,16
2022-10-13T06:36:36.985Z,14
2022-10-13T06:37:28.744Z,16
2022-10-13T06:38:20.473Z,17
2022-10-13T06:39:12.257Z,16
2022-10-13T06:40:03.983Z,15
2022-10-13T06:40:55.757Z,16
2022-10-13T06:41:47.484Z,15
2022-10-13T06:42:39.263Z,16
2022-10-13T06:43:34.553Z,16
2022-10-13T06:44:22.764Z,16
2022-10-13T06:45:14.507Z,16
2022-10-13T06:46:06.256Z,16
2022-10-13T06:46:58.003Z,15
2022-10-13T06:47:49.757Z,16
2022-10-13T06:48:41.506Z,15
2022-10-13T06:49:33.253Z,16
2022-10-13T06:50:24.973Z,16
2022-10-13T06:51:16.763Z,19
2022-10-13T06:52:08.518Z,20
2022-10-13T06:53:00.277Z,18
2022-10-13T06:53:52.021Z,17
2022-10-13T06:54:43.782Z,19
2022-10-13T06:55:35.465Z,18
2022-10-13T06:56:27.299Z,16
2022-10-13T06:57:19.027Z,14
2022-10-13T06:58:10.801Z,19
2022-10-13T06:59:02.627Z,20
2022-10-13T06:59:54.316Z,20
2022-10-13T07:00:46.099Z,23
2022-10-13T07:01:41.341Z,23
2022-10-13T07:02:29.563Z,22
2022-10-13T07:03:21.353Z,22
2022-10-13T07:04:13.078Z,22
2022-10-13T07:05:04.862Z,23
2022-10-13T07:05:56.585Z,23
2022-10-13T07:06:48.368Z,23
2022-10-13T07:07:40.086Z,24
2022-10-13T07:08:31.861Z,23
2022-10-13T07:09:23.592Z,23
2022-10-13T07:10:15.351Z,22
2022-10-13T07:11:10.515Z,23
2022-10-13T07:11:58.863Z,24
2022-10-13T07:12:50.602Z,22
2022-10-13T07:13:45.378Z,24
2022-10-13T07:14:34.105Z,23
2022-10-13T07:15:25.873Z,21
2022-10-13T07:16:17.588Z,23
2022-10-13T07:17:09.356Z,23
2022-10-13T07:18:01.045Z,22
2022-10-13T07:18:52.835Z,22
2022-10-13T07:19:44.579Z,22
2022-10-13T07:20:36.346Z,22
2022-10-13T07:21:28.077Z,21
2022-10-13T07:22:19.827Z,22
2022-10-13T07:23:11.574Z,23
2022-10-13T07:24:03.315Z,22
2022-10-13T07:24:54.972Z,21
2022-10-13T07:25:46.803Z,21
2022-10-13T07:26:38.551Z,22
2022-10-13T07:27:30.284Z,22
2022-10-13T07:28:22.065Z,21
2022-10-13T07:29:13.774Z,22
2022-10-13T07:30:05.488Z,21
2022-10-13T07:30:57.280Z,19
2022-10-13T07:31:49.008Z,20
2022-10-13T07:32:40.767Z,21
2022-10-13T07:33:32.498Z,20
2022-10-13T07:34:24.259Z,20
2022-10-13T07:35:16.008Z,19
2022-10-13T07:36:07.772Z,20
2022-10-13T07:36:59.512Z,19
2022-10-13T07:37:51.262Z,20
2022-10-13T07:38:42.999Z,20
2022-10-13T07:39:34.746Z,20
2022-10-13T07:40:26.514Z,20
2022-10-13T07:41:18.285Z,18
2022-10-13T07:42:10.008Z,19
2022-10-13T07:43:01.762Z,19
2022-10-13T07:43:53.578Z,20
2022-10-13T07:44:45.229Z,21
2022-10-13T07:45:37.027Z,21
2022-10-13T07:46:29.918Z,21
2022-10-13T07:47:20.959Z,20
2022-10-13T07:48:12.307Z,20
2022-10-13T07:49:04.081Z,19
2022-10-13T07:49:55.790Z,20
2022-10-13T07:50:47.569Z,21
2022-10-13T07:51:39.399Z,20
2022-10-13T07:52:31.076Z,20
2022-10-13T07:53:22.858Z,19
2022-10-13T07:54:14.589Z,20
2022-10-13T07:55:06.282Z,19
2022-10-13T07:55:58.114Z,20
2022-10-13T07:56:49.848Z,19
2022-10-13T07:57:41.599Z,20
2022-10-13T07:58:33.356Z,20
2022-10-13T07:59:25.035Z,19
2022-10-13T08:00:16.872Z,19
2022-10-13T08:01:08.614Z,18
2022-10-13T08:02:00.509Z,20
2022-10-13T08:02:52.118Z,18
2022-10-13T08:03:47.168Z,20
2022-10-13T08:04:35.565Z,18
2022-10-13T08:05:27.417Z,18
2022-10-13T08:06:19.142Z,19
2022-10-13T08:07:10.910Z,18
2022-10-13T08:08:02.652Z,20
2022-10-13T08:08:54.425Z,16
2022-10-13T08:09:46.190Z,17
2022-10-13T08:10:37.949Z,18
2022-10-13T08:11:29.684Z,19
2022-10-13T08:12:21.954Z,18
2022-10-13T08:13:13.199Z,18
2022-10-13T08:14:05.036Z,18
2022-10-13T08:14:58.500Z,17
2022-10-13T08:15:48.595Z,17
2022-10-13T08:16:40.236Z,16
2022-10-13T08:17:32.016Z,18
2022-10-13T08:18:23.759Z,18
2022-10-13T08:19:15.440Z,18
2022-10-13T08:20:07.289Z,16
2022-10-13T08:21:23.863Z,16
2022-10-13T08:21:59.616Z,16
2022-10-13T08:22:42.590Z,18
2022-10-13T08:23:34.323Z,19
2022-10-13T08:24:26.114Z,19
2022-10-13T08:25:17.865Z,18
2022-10-13T08:26:09.664Z,17
2022-10-13T08:27:01.325Z,17
2022-10-13T08:27:55.771Z,17
2022-10-13T08:28:57.462Z,18
2022-10-13T08:29:36.750Z,19
2022-10-13T08:30:28.601Z,18
2022-10-13T08:31:20.452Z,17
2022-10-13T08:32:11.967Z,19
2022-10-13T08:33:03.740Z,20
2022-10-13T08:33:55.492Z,21
2022-10-13T08:34:47.271Z,21
2022-10-13T08:35:39.009Z,20
2022-10-13T08:36:30.837Z,21
2022-10-13T08:37:22.528Z,21
2022-10-13T08:38:14.314Z,21
2022-10-13T08:39:06.045Z,21
2022-10-13T08:39:57.820Z,21
2022-10-13T08:40:49.560Z,21
2022-10-13T08:41:41.323Z,21
2022-10-13T08:42:33.084Z,21
2022-10-13T08:43:24.831Z,21
2022-10-13T08:45:36.319Z,21
2022-10-13T08:46:00.102Z,21
2022-10-13T08:46:51.859Z,21
2022-10-13T08:47:43.575Z,21
2022-10-13T08:48:35.266Z,21
2022-10-13T08:49:27.078Z,20
2022-10-13T08:50:18.841Z,20
2022-10-13T08:51:10.577Z,20
2022-10-13T08:52:02.352Z,21
2022-10-13T08:52:54.095Z,21
2022-10-13T08:53:45.817Z,20
2022-10-13T08:54:37.570Z,20
2022-10-13T08:55:29.350Z,21
2022-10-13T08:56:21.059Z,20
2022-10-13T08:57:12.819Z,19
2022-10-13T08:58:04.568Z,19
2022-10-13T08:58:56.311Z,19
2022-10-13T08:59:48.060Z,17
2022-10-13T09:00:39.826Z,17
2022-10-13T09:01:31.613Z,18
2022-10-13T09:02:23.337Z,17
2022-10-13T09:03:15.051Z,17
2022-10-13T09:04:06.832Z,19
2022-10-13T09:04:58.572Z,18
2022-10-13T09:05:50.340Z,17
2022-10-13T09:06:42.100Z,15
2022-10-13T09:07:33.865Z,16
2022-10-13T09:08:25.536Z,17
2022-10-13T09:09:17.391Z,15
2022-10-13T09:10:09.154Z,16
2022-10-13T09:11:00.907Z,16
2022-10-13T09:11:52.654Z,15
2022-10-13T09:12:44.429Z,16
2022-10-13T09:13:36.190Z,14
2022-10-13T09:14:27.963Z,17
2022-10-13T09:15:19.782Z,15
2022-10-13T09:16:11.502Z,15
2022-10-13T09:17:03.270Z,15
2022-10-13T09:17:55.017Z,14
2022-10-13T09:18:46.772Z,14
2022-10-13T09:19:38.551Z,15
2022-10-13T09:20:30.301Z,15
2022-10-13T09:21:22.069Z,16
2022-10-13T09:22:13.844Z,14
2022-10-13T09:23:05.566Z,14
2022-10-13T09:23:57.361Z,14
2022-10-13T09:24:49.139Z,15
2022-10-13T09:25:40.908Z,13
2022-10-13T09:26:32.679Z,14
2022-10-13T09:27:24.425Z,14
2022-10-13T09:28:16.267Z,14
2022-10-13T09:29:07.967Z,14
2022-10-13T09:29:59.748Z,13
2022-10-13T09:30:51.558Z,13
2022-10-13T09:31:43.298Z,14
2022-10-13T09:32:35.059Z,14
2022-10-13T09:33:26.818Z,14
2022-10-13T09:34:18.591Z,14
2022-10-13T09:35:10.364Z,14
2022-10-13T09:36:02.055Z,14
2022-10-13T09:36:53.900Z,13
2022-10-13T09:37:45.609Z,13
2022-10-13T09:38:37.447Z,13
2022-10-13T09:39:29.203Z,13
2022-10-13T09:40:20.988Z,12
2022-10-13T09:41:12.757Z,13
2022-10-13T09:42:04.534Z,13
2022-10-13T09:42:56.364Z,13
2022-10-13T09:43:48.084Z,12
2022-10-13T09:44:39.832Z,12
2022-10-13T09:45:31.624Z,12
2022-10-13T09:46:23.379Z,13
2022-10-13T09:47:15.183Z,14
2022-10-13T09:48:06.923Z,12
2022-10-13T09:48:58.710Z,14
2022-10-13T09:49:50.475Z,13
2022-10-13T09:50:42.248Z,12
2022-10-13T09:51:34.028Z,13
2022-10-13T09:52:25.778Z,13
2022-10-13T09:53:17.570Z,12
2022-10-13T09:54:09.360Z,12
2022-10-13T09:55:01.128Z,13
2022-10-13T09:55:52.902Z,12
2022-10-13T09:56:44.686Z,12
2022-10-13T09:57:36.469Z,14
2022-10-13T09:58:28.223Z,12
2022-10-13T09:59:19.998Z,12
2022-10-13T10:00:11.775Z,14
2022-10-13T10:01:03.552Z,15
2022-10-13T10:01:55.247Z,12
2022-10-13T10:02:47.101Z,12
2022-10-13T10:03:38.941Z,12
2022-10-13T10:04:30.641Z,11
2022-10-13T10:05:22.406Z,13
2022-10-13T10:06:14.204Z,12
2022-10-13T10:07:05.924Z,12
2022-10-13T10:07:57.757Z,12
2022-10-13T10:09:03.669Z,12
2022-10-13T10:09:41.307Z,13
2022-10-13T10:10:33.095Z,13
2022-10-13T10:11:24.881Z,12
2022-10-13T10:12:16.618Z,12
2022-10-13T10:13:08.434Z,13
2022-10-13T10:14:00.195Z,12
2022-10-13T10:14:51.961Z,12
2022-10-13T10:15:43.716Z,12
2022-10-13T10:16:35.492Z,12
2022-10-13T10:17:27.272Z,12
2022-10-13T10:18:19.051Z,11
2022-10-13T10:19:10.819Z,12
2022-10-13T10:20:02.623Z,11
2022-10-13T10:20:54.394Z,11
2022-10-13T10:21:46.185Z,12
2022-10-13T10:22:37.941Z,12
2022-10-13T10:23:29.729Z,12
2022-10-13T10:24:21.492Z,12
2022-10-13T10:25:13.291Z,12
2022-10-13T10:26:05.065Z,12
2022-10-13T10:26:56.835Z,12
2022-10-13T10:27:48.602Z,13
2022-10-13T10:28:40.471Z,12
2022-10-13T10:29:32.175Z,13
2022-10-13T10:30:23.955Z,12
2022-10-13T10:31:15.684Z,11
2022-10-13T10:32:07.546Z,11
2022-10-13T10:32:59.293Z,12
2022-10-13T10:33:51.082Z,12
2022-10-13T10:34:42.845Z,12
2022-10-13T10:35:34.633Z,12
2022-10-13T10:36:26.399Z,12
2022-10-13T10:37:21.342Z,12
2022-10-13T10:38:09.975Z,13
2022-10-13T10:39:01.683Z,11
2022-10-13T10:39:53.530Z,11
2022-10-13T10:40:45.298Z,11
2022-10-13T10:41:37.282Z,10
2022-10-13T10:42:28.893Z,12
2022-10-13T10:43:20.666Z,11
2022-10-13T10:44:12.475Z,11
2022-10-13T10:45:04.262Z,12
2022-10-13T10:45:55.938Z,12
2022-10-13T10:46:47.788Z,11
2022-10-13T10:47:39.783Z,10
2022-10-13T10:48:31.362Z,11
2022-10-13T10:49:23.161Z,10
2022-10-13T10:50:14.915Z,12
2022-10-13T10:51:06.710Z,11
2022-10-13T10:51:58.487Z,11
2022-10-13T10:52:50.296Z,10
2022-10-13T10:53:42.061Z,10
2022-10-13T10:54:33.863Z,10
2022-10-13T10:55:25.541Z,11
2022-10-13T10:56:17.427Z,12
2022-10-13T10:57:09.173Z,11
2022-10-13T10:58:00.974Z,10
2022-10-13T10:58:52.738Z,10
2022-10-13T10:59:51.690Z,10
2022-10-13T11:00:36.327Z,12
2022-10-13T11:01:28.179Z,12
2022-10-13T11:02:19.993Z,12
2022-10-13T11:03:11.686Z,13
2022-10-13T11:04:03.443Z,12
2022-10-13T11:04:55.259Z,11
2022-10-13T11:05:47.010Z,10
2022-10-13T11:06:38.821Z,12
2022-10-13T11:07:30.589Z,10
2022-10-13T11:08:22.373Z,11
2022-10-13T11:09:14.159Z,11
2022-10-13T11:10:05.916Z,11
2022-10-13T11:10:57.721Z,12
2022-10-13T11:11:49.513Z,12
2022-10-13T11:12:41.285Z,12
2022-10-13T11:13:33.075Z,10
2022-10-13T11:14:24.848Z,10
2022-10-13T11:15:16.658Z,11
2022-10-13T11:16:08.423Z,10
2022-10-13T11:17:00.223Z,10
2022-10-13T11:17:51.991Z,10
2022-10-13T11:18:43.795Z,10
2022-10-13T11:19:35.476Z,10
2022-10-13T11:20:27.377Z,9
2022-10-13T11:21:19.172Z,9
2022-10-13T11:22:10.938Z,9
2022-10-13T11:23:02.722Z,9
2022-10-13T11:23:58.469Z,9
2022-10-13T11:24:46.189Z,10
2022-10-13T11:25:38.083Z,10
2022-10-13T11:26:29.851Z,9
2022-10-13T11:27:21.680Z,10
2022-10-13T11:28:13.468Z,11
2022-10-13T11:29:05.236Z,10
2022-10-13T11:29:57.040Z,9
2022-10-13T11:30:48.813Z,10
2022-10-13T11:31:40.601Z,10
2022-10-13T11:32:32.379Z,10
2022-10-13T11:33:24.151Z,9
2022-10-13T11:34:15.888Z,11
2022-10-13T11:35:07.736Z,9
2022-10-13T11:35:59.541Z,9
2022-10-13T11:36:51.307Z,9
2022-10-13T11:37:48.310Z,9
2022-10-13T11:38:34.903Z,9
2022-10-13T11:39:26.801Z,10
2022-10-13T11:40:18.482Z,9
2022-10-13T11:41:10.275Z,9
2022-10-13T11:42:01.932Z,10
2022-10-13T11:42:56.904Z,10
2022-10-13T11:43:45.544Z,8
2022-10-13T11:44:37.408Z,10
2022-10-13T11:45:29.231Z,10
2022-10-13T11:46:20.978Z,10
2022-10-13T11:47:12.738Z,12
2022-10-13T11:48:04.608Z,10
2022-10-13T11:48:56.355Z,9
2022-10-13T11:49:48.135Z,9
2022-10-13T11:50:39.892Z,8
2022-10-13T11:51:31.679Z,9
2022-10-13T11:52:23.704Z,10
2022-10-13T11:53:15.245Z,12
2022-10-13T11:54:07.049Z,10
2022-10-13T11:54:58.828Z,9
2022-10-13T11:55:50.635Z,9
2022-10-13T11:56:44.944Z,9
2022-10-13T11:57:34.182Z,9
2022-10-13T11:58:25.903Z,9
2022-10-13T11:59:17.768Z,10
2022-10-13T12:00:09.633Z,11
2022-10-13T12:01:01.383Z,10
2022-10-13T12:01:53.177Z,9
2022-10-13T12:02:44.996Z,9
2022-10-13T12:03:36.746Z,9
2022-10-13T12:04:28.549Z,10
2022-10-13T12:05:20.363Z,11
2022-10-13T12:06:12.111Z,11
2022-10-13T12:07:03.937Z,9
2022-10-13T12:07:55.607Z,9
2022-10-13T12:08:47.551Z,9
2022-10-13T12:09:39.279Z,9
2022-10-13T12:10:31.121Z,10
2022-10-13T12:11:22.874Z,10
2022-10-13T12:12:14.686Z,11
2022-10-13T12:13:06.455Z,9
2022-10-13T12:13:58.269Z,9
2022-10-13T12:14:50.050Z,9
2022-10-13T12:15:41.855Z,10
2022-10-13T12:16:33.655Z,9
2022-10-13T12:17:25.805Z,10
2022-10-13T12:18:17.216Z,9
2022-10-13T12:19:09.022Z,10